Strona główna
METAR-TAF:

METAR-TAF

Lotnisko :

Port lotniczy Wagadugu

Wagadugu, Burkina Faso

Szerokość geograficzna: 12-21N, Długość geograficzna: 001-31W, wysokość: 316 m

Aktualna obserwacja pogody

Raport powstał 47 minut temu, godzina 03:00 UTC
Wiatr 4 kt od północny zachód
Temperatura 29°C
Wilgotność 70%
Ciśnienie 1010 hPa
Widzialność 10 km lub więcej
Brak chmur poniżej 1500 m i brak chmur cumulonimbus

METAR: DFFD 180300Z 32004KT CAVOK 29/23 Q1010 NOSIG

czas: 03:47 (03:47 UTC)

Prognoza

Raport powstał 4 godziny i 47 minut temu, godzina 23:00 UTC
Prognoza ważna od 18 godzina 00 UTC do 19 godzina 06 UTC
Wiatr 8 kt od zachodnio-południowy zachód
Widzialność 10 km lub więcej
Mało chmury na wysokości 2000 ft
Prawdopodobieństwo 30% :
Przejściowo
od 18 godzina 15 UTC do 18 godzina 22 UTC
Widzialność: 4000 m
Rozproszone chmury na wysokości 2000 ft
Mało chmury na wysokości 3600 ft, Cumulonimbus.
burza, deszcz

TAF: DFFD 172300Z 1800/1906 24008KT 9999 FEW020 PROB30 TEMPO 1815/1822 4000 TSRA SCT020 FEW036CB

Obserwacja i prognoza pogody dla ponad 4000 lotnisk (raport METAR i TAF).

Dostępne stacje oznaczono żółtymi i czerwonymi punktami na mapie.

Najedź kursorem aby zobaczyć nazwę stacji.

Kliknij aby zobaczyć obserwacje i prognozy pogody.

Aby zmienić mapę: kliknij na zielony przycisk z czarnym krzyżykiem, aby powiększyć; na zielony przycisk z myślnikiem, aby pomniejszyć; na zielone strzałki, aby przejść do map sąsiednich.


METAR-TAF: